This is the latest recevied weather packets stored in our database for station/object KQ4HDO. If no packets are shown the sender has not sent any weather packets the latest 10 day(s).
| Time | Temp. | Humidity | Pressure | Rain* | Wind** | Luminosity | Snow |
|---|---|---|---|---|---|---|---|
| 1777176603 | 17.78° C | 56% | 1011.5 hPa | 0 mm | - | - | - |
| 1777174203 | 18.33° C | 54% | 1011.2 hPa | 0 mm | - | - | - |
| 1777173903 | 17.78° C | 56% | 1011.1 hPa | 0 mm | - | - | - |
| 1777172103 | 16.67° C | 64% | 1011.3 hPa | 0 mm | - | - | - |
| 1777170303 | 18.33° C | 58% | 1011 hPa | 0 mm | - | - | - |
| 1777169703 | 18.33° C | 58% | 1010.6 hPa | 0 mm | - | - | - |
| 1777169103 | 18.89° C | 57% | 1010.2 hPa | 0 mm | - | - | - |
| 1777168803 | 18.89° C | 57% | 1010.2 hPa | 0 mm | - | - | - |
| 1777166103 | 18.33° C | 61% | 1010.1 hPa | 0 mm | - | - | - |
| 1777165503 | 18.89° C | 59% | 1010.2 hPa | 0 mm | - | - | - |
| 1777164737 | 19.44° C | 58% | 1010.2 hPa | 0 mm | - | - | - |
| 1777164303 | 20° C | 57% | 1010.3 hPa | 0 mm | - | - | - |
| 1777161903 | 23.33° C | 42% | 1010.4 hPa | 0 mm | - | - | - |
| 1777161737 | 23.33° C | 42% | 1010.3 hPa | 0 mm | - | - | - |
| 1777160404 | 23.89° C | 40% | 1010.3 hPa | 0 mm | - | - | - |
| 1777158303 | 23.89° C | 38% | 1010 hPa | 0 mm | - | - | - |
| 1777155303 | 24.44° C | 34% | 1009.8 hPa | 0 mm | - | - | - |
| 1777152904 | 25° C | 33% | 1010.1 hPa | 0 mm | - | - | - |
| 1777151836 | 25° C | 34% | 1010.1 hPa | 0 mm | - | - | - |
| 1777150203 | 25.56° C | 29% | 1010.3 hPa | 0 mm | - | - | - |
| 1777149303 | 25.56° C | 31% | 1010.6 hPa | 0 mm | - | - | - |
| 1777147803 | 25.56° C | 34% | 1010.6 hPa | 0 mm | - | - | - |
| 1777145403 | 25.56° C | 38% | 1010.8 hPa | 0 mm | - | - | - |
| 1777140739 | 23.89° C | 40% | 1011.2 hPa | 0 mm | - | - | - |
| 1777139538 | 23.33° C | 44% | 1011.5 hPa | 0 mm | - | - | - |
* Rain latest hour (hover to see other rain measurements)
** Current wind speed in m/s (hover to see current wind gust speed)